sensor_id;sensor_type;location;lat;lon;timestamp;P1;durP1;ratioP1;P2;durP2;ratioP2
60243;SDS011;46106;51.468;5.814;2022-12-16T00:01:31;68.50;;;27.67;;
60243;SDS011;46106;51.468;5.814;2022-12-16T00:03:56;67.68;;;26.73;;
60243;SDS011;46106;51.468;5.814;2022-12-16T00:06:24;58.05;;;25.10;;
60243;SDS011;46106;51.468;5.814;2022-12-16T00:08:50;61.55;;;26.50;;
60243;SDS011;46106;51.468;5.814;2022-12-16T00:11:15;77.75;;;26.88;;
60243;SDS011;46106;51.468;5.814;2022-12-16T00:13:41;65.05;;;27.00;;
60243;SDS011;46106;51.468;5.814;2022-12-16T00:16:10;53.75;;;23.85;;
60243;SDS011;46106;51.468;5.814;2022-12-16T00:18:37;66.22;;;26.35;;
60243;SDS011;46106;51.468;5.814;2022-12-16T00:21:03;63.30;;;26.42;;
60243;SDS011;46106;51.468;5.814;2022-12-16T00:23:29;53.75;;;23.00;;
60243;SDS011;46106;51.468;5.814;2022-12-16T00:25:56;58.70;;;25.13;;
60243;SDS011;46106;51.468;5.814;2022-12-16T00:28:21;46.50;;;21.45;;
60243;SDS011;46106;51.468;5.814;2022-12-16T00:30:48;52.92;;;23.75;;
60243;SDS011;46106;51.468;5.814;2022-12-16T00:33:17;53.13;;;24.58;;
60243;SDS011;46106;51.468;5.814;2022-12-16T00:35:45;54.45;;;23.88;;
60243;SDS011;46106;51.468;5.814;2022-12-16T00:38:10;48.63;;;23.73;;
60243;SDS011;46106;51.468;5.814;2022-12-16T00:40:36;60.55;;;25.42;;
60243;SDS011;46106;51.468;5.814;2022-12-16T00:43:02;45.97;;;22.63;;
60243;SDS011;46106;51.468;5.814;2022-12-16T00:45:28;49.33;;;21.70;;
60243;SDS011;46106;51.468;5.814;2022-12-16T00:47:55;55.63;;;24.40;;
60243;SDS011;46106;51.468;5.814;2022-12-16T00:50:20;61.47;;;23.95;;
60243;SDS011;46106;51.468;5.814;2022-12-16T00:52:46;55.17;;;23.15;;
60243;SDS011;46106;51.468;5.814;2022-12-16T00:55:14;58.72;;;24.30;;
60243;SDS011;46106;51.468;5.814;2022-12-16T00:57:42;59.67;;;25.23;;
60243;SDS011;46106;51.468;5.814;2022-12-16T01:00:09;59.95;;;25.27;;
60243;SDS011;46106;51.468;5.814;2022-12-16T01:02:43;49.70;;;23.70;;
60243;SDS011;46106;51.468;5.814;2022-12-16T01:05:12;59.08;;;25.73;;
60243;SDS011;46106;51.468;5.814;2022-12-16T01:07:40;62.40;;;26.95;;
60243;SDS011;46106;51.468;5.814;2022-12-16T01:10:06;66.82;;;27.38;;
60243;SDS011;46106;51.468;5.814;2022-12-16T01:12:34;67.63;;;26.25;;
60243;SDS011;46106;51.468;5.814;2022-12-16T01:15:02;59.83;;;26.80;;
60243;SDS011;46106;51.468;5.814;2022-12-16T01:17:29;62.35;;;27.17;;
60243;SDS011;46106;51.468;5.814;2022-12-16T01:19:54;62.55;;;27.33;;
60243;SDS011;46106;51.468;5.814;2022-12-16T01:22:20;61.65;;;26.67;;
60243;SDS011;46106;51.468;5.814;2022-12-16T01:24:48;66.30;;;28.10;;
60243;SDS011;46106;51.468;5.814;2022-12-16T01:27:13;63.35;;;26.58;;
60243;SDS011;46106;51.468;5.814;2022-12-16T01:29:39;57.83;;;25.95;;
60243;SDS011;46106;51.468;5.814;2022-12-16T01:32:06;65.72;;;27.35;;
60243;SDS011;46106;51.468;5.814;2022-12-16T01:34:34;63.10;;;25.58;;
60243;SDS011;46106;51.468;5.814;2022-12-16T01:36:59;57.33;;;27.02;;
60243;SDS011;46106;51.468;5.814;2022-12-16T01:39:25;55.50;;;26.80;;
60243;SDS011;46106;51.468;5.814;2022-12-16T01:41:51;69.90;;;27.88;;
60243;SDS011;46106;51.468;5.814;2022-12-16T01:44:18;66.45;;;26.10;;
60243;SDS011;46106;51.468;5.814;2022-12-16T01:46:49;62.28;;;26.92;;
60243;SDS011;46106;51.468;5.814;2022-12-16T01:49:23;56.17;;;27.00;;
60243;SDS011;46106;51.468;5.814;2022-12-16T01:51:59;60.60;;;25.45;;
60243;SDS011;46106;51.468;5.814;2022-12-16T01:54:30;56.17;;;25.50;;
60243;SDS011;46106;51.468;5.814;2022-12-16T01:57:08;55.45;;;25.65;;
60243;SDS011;46106;51.468;5.814;2022-12-16T01:59:39;53.60;;;26.00;;
60243;SDS011;46106;51.468;5.814;2022-12-16T02:02:08;55.40;;;24.85;;
60243;SDS011;46106;51.468;5.814;2022-12-16T02:04:36;53.35;;;24.50;;
60243;SDS011;46106;51.468;5.814;2022-12-16T02:07:21;63.60;;;27.02;;
60243;SDS011;46106;51.468;5.814;2022-12-16T02:09:47;59.35;;;26.20;;
60243;SDS011;46106;51.468;5.814;2022-12-16T02:12:23;55.40;;;24.77;;
60243;SDS011;46106;51.468;5.814;2022-12-16T02:24:03;59.25;;;27.38;;
60243;SDS011;46106;51.468;5.814;2022-12-16T02:42:47;61.47;;;26.95;;
60243;SDS011;46106;51.468;5.814;2022-12-16T02:45:34;52.17;;;26.08;;
60243;SDS011;46106;51.468;5.814;2022-12-16T02:48:01;54.35;;;26.02;;
60243;SDS011;46106;51.468;5.814;2022-12-16T02:50:34;54.92;;;26.15;;
60243;SDS011;46106;51.468;5.814;2022-12-16T02:53:03;63.25;;;26.95;;
60243;SDS011;46106;51.468;5.814;2022-12-16T02:55:34;58.60;;;26.30;;
60243;SDS011;46106;51.468;5.814;2022-12-16T03:00:39;59.80;;;27.95;;
60243;SDS011;46106;51.468;5.814;2022-12-16T03:03:29;60.10;;;27.48;;
60243;SDS011;46106;51.468;5.814;2022-12-16T03:06:04;55.40;;;26.73;;
60243;SDS011;46106;51.468;5.814;2022-12-16T03:08:33;60.70;;;27.80;;
60243;SDS011;46106;51.468;5.814;2022-12-16T03:11:03;57.40;;;26.13;;
60243;SDS011;46106;51.468;5.814;2022-12-16T03:13:32;59.33;;;26.90;;
60243;SDS011;46106;51.468;5.814;2022-12-16T03:16:05;63.45;;;27.48;;
60243;SDS011;46106;51.468;5.814;2022-12-16T03:18:34;64.57;;;29.10;;
60243;SDS011;46106;51.468;5.814;2022-12-16T03:21:04;69.85;;;29.92;;
60243;SDS011;46106;51.468;5.814;2022-12-16T03:23:34;69.90;;;28.30;;
60243;SDS011;46106;51.468;5.814;2022-12-16T03:26:08;64.90;;;29.95;;
60243;SDS011;46106;51.468;5.814;2022-12-16T03:28:53;65.88;;;29.80;;
60243;SDS011;46106;51.468;5.814;2022-12-16T03:36:41;66.40;;;29.25;;
60243;SDS011;46106;51.468;5.814;2022-12-16T03:39:10;82.57;;;31.65;;
60243;SDS011;46106;51.468;5.814;2022-12-16T03:41:38;69.45;;;28.23;;
60243;SDS011;46106;51.468;5.814;2022-12-16T03:44:07;72.72;;;30.00;;
60243;SDS011;46106;51.468;5.814;2022-12-16T03:46:33;73.30;;;31.55;;
60243;SDS011;46106;51.468;5.814;2022-12-16T03:48:59;78.70;;;32.38;;
60243;SDS011;46106;51.468;5.814;2022-12-16T03:51:25;78.55;;;32.85;;
60243;SDS011;46106;51.468;5.814;2022-12-16T03:53:50;74.03;;;32.83;;
60243;SDS011;46106;51.468;5.814;2022-12-16T03:56:16;74.80;;;30.95;;
60243;SDS011;46106;51.468;5.814;2022-12-16T03:58:42;72.68;;;31.67;;
60243;SDS011;46106;51.468;5.814;2022-12-16T04:01:08;82.10;;;32.30;;
60243;SDS011;46106;51.468;5.814;2022-12-16T04:03:34;79.55;;;31.15;;
60243;SDS011;46106;51.468;5.814;2022-12-16T04:06:01;73.68;;;30.33;;
60243;SDS011;46106;51.468;5.814;2022-12-16T04:08:26;70.07;;;30.65;;
60243;SDS011;46106;51.468;5.814;2022-12-16T04:10:55;75.47;;;33.22;;
60243;SDS011;46106;51.468;5.814;2022-12-16T04:13:39;79.07;;;31.25;;
60243;SDS011;46106;51.468;5.814;2022-12-16T04:16:23;77.25;;;30.50;;
60243;SDS011;46106;51.468;5.814;2022-12-16T04:19:12;68.35;;;30.15;;
60243;SDS011;46106;51.468;5.814;2022-12-16T04:22:02;76.83;;;31.27;;
60243;SDS011;46106;51.468;5.814;2022-12-16T04:24:46;75.15;;;32.03;;
60243;SDS011;46106;51.468;5.814;2022-12-16T04:27:12;77.15;;;31.35;;
60243;SDS011;46106;51.468;5.814;2022-12-16T04:29:49;72.10;;;32.08;;
60243;SDS011;46106;51.468;5.814;2022-12-16T04:32:33;73.88;;;30.73;;
60243;SDS011;46106;51.468;5.814;2022-12-16T04:35:17;72.05;;;31.88;;
60243;SDS011;46106;51.468;5.814;2022-12-16T04:38:02;72.00;;;29.25;;
60243;SDS011;46106;51.468;5.814;2022-12-16T04:40:46;70.68;;;28.85;;
60243;SDS011;46106;51.468;5.814;2022-12-16T04:43:30;70.93;;;31.27;;
60243;SDS011;46106;51.468;5.814;2022-12-16T04:46:13;66.90;;;29.52;;
60243;SDS011;46106;51.468;5.814;2022-12-16T04:48:57;69.80;;;31.38;;
60243;SDS011;46106;51.468;5.814;2022-12-16T04:51:41;74.20;;;32.95;;
60243;SDS011;46106;51.468;5.814;2022-12-16T04:54:33;66.90;;;29.73;;
60243;SDS011;46106;51.468;5.814;2022-12-16T04:57:16;71.32;;;30.38;;
60243;SDS011;46106;51.468;5.814;2022-12-16T05:00:00;73.45;;;30.55;;
60243;SDS011;46106;51.468;5.814;2022-12-16T05:02:46;72.78;;;30.52;;
60243;SDS011;46106;51.468;5.814;2022-12-16T05:05:32;72.32;;;31.10;;
60243;SDS011;46106;51.468;5.814;2022-12-16T05:08:15;71.28;;;31.52;;
60243;SDS011;46106;51.468;5.814;2022-12-16T05:10:59;74.18;;;31.13;;
60243;SDS011;46106;51.468;5.814;2022-12-16T05:13:43;66.32;;;29.60;;
60243;SDS011;46106;51.468;5.814;2022-12-16T05:16:27;68.70;;;29.40;;
60243;SDS011;46106;51.468;5.814;2022-12-16T05:19:11;64.72;;;29.90;;
60243;SDS011;46106;51.468;5.814;2022-12-16T05:21:55;73.38;;;31.40;;
60243;SDS011;46106;51.468;5.814;2022-12-16T05:24:41;74.65;;;29.10;;
60243;SDS011;46106;51.468;5.814;2022-12-16T05:27:25;77.43;;;30.75;;
60243;SDS011;46106;51.468;5.814;2022-12-16T05:30:09;68.70;;;30.42;;
60243;SDS011;46106;51.468;5.814;2022-12-16T05:32:54;67.32;;;30.80;;
60243;SDS011;46106;51.468;5.814;2022-12-16T05:35:37;69.82;;;30.48;;
60243;SDS011;46106;51.468;5.814;2022-12-16T05:38:21;70.88;;;31.05;;
60243;SDS011;46106;51.468;5.814;2022-12-16T05:41:05;77.40;;;32.83;;
60243;SDS011;46106;51.468;5.814;2022-12-16T05:43:49;67.35;;;30.55;;
60243;SDS011;46106;51.468;5.814;2022-12-16T05:46:33;71.97;;;30.95;;
60243;SDS011;46106;51.468;5.814;2022-12-16T05:49:17;72.53;;;29.33;;
60243;SDS011;46106;51.468;5.814;2022-12-16T05:52:01;71.60;;;30.95;;
60243;SDS011;46106;51.468;5.814;2022-12-16T05:54:45;66.63;;;31.45;;
60243;SDS011;46106;51.468;5.814;2022-12-16T05:57:29;71.63;;;31.45;;
60243;SDS011;46106;51.468;5.814;2022-12-16T06:00:27;81.97;;;31.40;;
60243;SDS011;46106;51.468;5.814;2022-12-16T06:03:13;66.65;;;32.15;;
60243;SDS011;46106;51.468;5.814;2022-12-16T06:05:57;62.97;;;31.02;;
60243;SDS011;46106;51.468;5.814;2022-12-16T06:08:41;72.03;;;31.23;;
60243;SDS011;46106;51.468;5.814;2022-12-16T06:11:25;74.63;;;31.17;;
60243;SDS011;46106;51.468;5.814;2022-12-16T06:14:09;74.47;;;32.10;;
60243;SDS011;46106;51.468;5.814;2022-12-16T06:16:53;71.35;;;31.35;;
60243;SDS011;46106;51.468;5.814;2022-12-16T06:19:37;63.75;;;29.13;;
60243;SDS011;46106;51.468;5.814;2022-12-16T06:22:21;67.45;;;30.50;;
60243;SDS011;46106;51.468;5.814;2022-12-16T06:25:05;66.72;;;32.60;;
60243;SDS011;46106;51.468;5.814;2022-12-16T06:27:52;78.53;;;32.05;;
60243;SDS011;46106;51.468;5.814;2022-12-16T06:30:37;70.05;;;31.67;;
60243;SDS011;46106;51.468;5.814;2022-12-16T06:33:22;60.38;;;30.15;;
60243;SDS011;46106;51.468;5.814;2022-12-16T06:36:06;68.07;;;33.00;;
60243;SDS011;46106;51.468;5.814;2022-12-16T06:38:50;72.38;;;32.55;;
60243;SDS011;46106;51.468;5.814;2022-12-16T06:41:34;70.88;;;31.52;;
60243;SDS011;46106;51.468;5.814;2022-12-16T06:44:18;68.72;;;32.53;;
60243;SDS011;46106;51.468;5.814;2022-12-16T06:47:03;71.57;;;33.05;;
60243;SDS011;46106;51.468;5.814;2022-12-16T06:49:47;66.75;;;31.90;;
60243;SDS011;46106;51.468;5.814;2022-12-16T06:52:31;67.32;;;31.73;;
60243;SDS011;46106;51.468;5.814;2022-12-16T06:55:15;76.97;;;33.92;;
60243;SDS011;46106;51.468;5.814;2022-12-16T06:57:59;80.70;;;36.20;;
60243;SDS011;46106;51.468;5.814;2022-12-16T07:00:43;77.07;;;33.88;;
60243;SDS011;46106;51.468;5.814;2022-12-16T07:03:28;71.45;;;33.67;;
60243;SDS011;46106;51.468;5.814;2022-12-16T07:06:12;71.00;;;32.28;;
60243;SDS011;46106;51.468;5.814;2022-12-16T07:08:56;79.97;;;33.67;;
60243;SDS011;46106;51.468;5.814;2022-12-16T07:11:40;76.03;;;33.15;;
60243;SDS011;46106;51.468;5.814;2022-12-16T07:14:24;81.28;;;35.30;;
60243;SDS011;46106;51.468;5.814;2022-12-16T07:17:08;73.57;;;34.70;;
60243;SDS011;46106;51.468;5.814;2022-12-16T07:19:52;77.78;;;34.08;;
60243;SDS011;46106;51.468;5.814;2022-12-16T07:22:36;78.70;;;36.40;;
60243;SDS011;46106;51.468;5.814;2022-12-16T07:25:25;78.88;;;32.45;;
60243;SDS011;46106;51.468;5.814;2022-12-16T07:28:09;76.88;;;36.63;;
60243;SDS011;46106;51.468;5.814;2022-12-16T07:30:53;77.55;;;35.50;;
60243;SDS011;46106;51.468;5.814;2022-12-16T07:33:37;78.88;;;34.67;;
60243;SDS011;46106;51.468;5.814;2022-12-16T07:36:21;81.63;;;35.67;;
60243;SDS011;46106;51.468;5.814;2022-12-16T07:39:05;82.40;;;36.05;;
60243;SDS011;46106;51.468;5.814;2022-12-16T07:41:49;70.68;;;32.90;;
60243;SDS011;46106;51.468;5.814;2022-12-16T07:44:33;82.18;;;35.88;;
60243;SDS011;46106;51.468;5.814;2022-12-16T07:47:17;84.45;;;37.22;;
60243;SDS011;46106;51.468;5.814;2022-12-16T07:50:01;84.68;;;37.03;;
60243;SDS011;46106;51.468;5.814;2022-12-16T07:52:47;94.88;;;36.30;;
60243;SDS011;46106;51.468;5.814;2022-12-16T07:55:36;91.53;;;37.75;;
60243;SDS011;46106;51.468;5.814;2022-12-16T07:58:20;109.43;;;39.33;;
60243;SDS011;46106;51.468;5.814;2022-12-16T08:01:04;94.55;;;37.38;;
60243;SDS011;46106;51.468;5.814;2022-12-16T08:03:48;107.13;;;39.53;;
60243;SDS011;46106;51.468;5.814;2022-12-16T08:06:32;94.00;;;37.80;;
60243;SDS011;46106;51.468;5.814;2022-12-16T08:09:16;101.65;;;35.92;;
60243;SDS011;46106;51.468;5.814;2022-12-16T08:12:00;100.57;;;35.85;;
60243;SDS011;46106;51.468;5.814;2022-12-16T08:14:44;95.22;;;38.15;;
60243;SDS011;46106;51.468;5.814;2022-12-16T08:17:28;99.18;;;37.40;;
60243;SDS011;46106;51.468;5.814;2022-12-16T08:20:12;110.57;;;38.22;;
60243;SDS011;46106;51.468;5.814;2022-12-16T08:22:56;105.97;;;39.63;;
60243;SDS011;46106;51.468;5.814;2022-12-16T08:25:39;108.18;;;40.17;;
60243;SDS011;46106;51.468;5.814;2022-12-16T08:28:23;125.63;;;43.40;;
60243;SDS011;46106;51.468;5.814;2022-12-16T08:31:07;120.65;;;41.58;;
60243;SDS011;46106;51.468;5.814;2022-12-16T08:33:51;121.43;;;42.15;;
60243;SDS011;46106;51.468;5.814;2022-12-16T08:36:35;132.57;;;41.92;;
60243;SDS011;46106;51.468;5.814;2022-12-16T08:39:19;129.20;;;44.10;;
60243;SDS011;46106;51.468;5.814;2022-12-16T08:42:03;121.85;;;42.80;;
60243;SDS011;46106;51.468;5.814;2022-12-16T08:44:47;124.22;;;42.60;;
60243;SDS011;46106;51.468;5.814;2022-12-16T08:47:31;139.98;;;43.80;;
60243;SDS011;46106;51.468;5.814;2022-12-16T08:50:15;126.63;;;44.17;;
60243;SDS011;46106;51.468;5.814;2022-12-16T08:52:59;128.43;;;43.63;;
60243;SDS011;46106;51.468;5.814;2022-12-16T08:55:43;139.80;;;44.42;;
60243;SDS011;46106;51.468;5.814;2022-12-16T08:58:27;140.32;;;44.97;;
60243;SDS011;46106;51.468;5.814;2022-12-16T09:01:11;138.18;;;45.28;;
60243;SDS011;46106;51.468;5.814;2022-12-16T09:03:55;124.05;;;44.67;;
60243;SDS011;46106;51.468;5.814;2022-12-16T09:06:39;122.90;;;45.17;;
60243;SDS011;46106;51.468;5.814;2022-12-16T09:09:23;127.25;;;43.38;;
60243;SDS011;46106;51.468;5.814;2022-12-16T09:12:07;124.65;;;45.38;;
60243;SDS011;46106;51.468;5.814;2022-12-16T09:14:51;134.90;;;44.35;;
60243;SDS011;46106;51.468;5.814;2022-12-16T09:17:36;118.65;;;43.78;;
60243;SDS011;46106;51.468;5.814;2022-12-16T09:20:23;113.57;;;46.13;;
60243;SDS011;46106;51.468;5.814;2022-12-16T09:23:07;133.32;;;46.03;;
60243;SDS011;46106;51.468;5.814;2022-12-16T09:25:51;131.55;;;46.60;;
60243;SDS011;46106;51.468;5.814;2022-12-16T09:28:35;120.65;;;43.50;;
60243;SDS011;46106;51.468;5.814;2022-12-16T09:31:19;122.40;;;45.00;;
60243;SDS011;46106;51.468;5.814;2022-12-16T09:34:03;123.35;;;45.00;;
60243;SDS011;46106;51.468;5.814;2022-12-16T09:36:46;139.10;;;48.10;;
60243;SDS011;46106;51.468;5.814;2022-12-16T09:39:30;125.43;;;45.22;;
60243;SDS011;46106;51.468;5.814;2022-12-16T09:45:03;143.30;;;45.90;;
60243;SDS011;46106;51.468;5.814;2022-12-16T09:48:10;132.00;;;44.20;;
60243;SDS011;46106;51.468;5.814;2022-12-16T09:51:03;136.00;;;46.78;;
60243;SDS011;46106;51.468;5.814;2022-12-16T09:53:50;134.85;;;45.55;;
60243;SDS011;46106;51.468;5.814;2022-12-16T09:56:37;140.30;;;47.20;;
60243;SDS011;46106;51.468;5.814;2022-12-16T09:59:26;134.55;;;46.38;;
60243;SDS011;46106;51.468;5.814;2022-12-16T10:02:16;123.68;;;43.88;;
60243;SDS011;46106;51.468;5.814;2022-12-16T10:05:01;123.53;;;43.75;;
60243;SDS011;46106;51.468;5.814;2022-12-16T10:07:53;124.45;;;43.42;;
60243;SDS011;46106;51.468;5.814;2022-12-16T10:10:54;117.15;;;42.33;;
60243;SDS011;46106;51.468;5.814;2022-12-16T10:13:54;126.47;;;42.97;;
60243;SDS011;46106;51.468;5.814;2022-12-16T10:17:27;113.70;;;40.83;;
60243;SDS011;46106;51.468;5.814;2022-12-16T10:20:27;111.90;;;41.28;;
60243;SDS011;46106;51.468;5.814;2022-12-16T10:29:31;108.95;;;42.72;;
60243;SDS011;46106;51.468;5.814;2022-12-16T10:32:40;120.63;;;42.22;;
60243;SDS011;46106;51.468;5.814;2022-12-16T10:38:21;117.22;;;42.90;;
60243;SDS011;46106;51.468;5.814;2022-12-16T10:41:11;98.90;;;41.33;;
60243;SDS011;46106;51.468;5.814;2022-12-16T10:43:56;109.63;;;41.53;;
60243;SDS011;46106;51.468;5.814;2022-12-16T10:46:41;120.53;;;42.40;;
60243;SDS011;46106;51.468;5.814;2022-12-16T10:49:25;99.88;;;42.28;;
60243;SDS011;46106;51.468;5.814;2022-12-16T10:52:26;112.43;;;40.35;;
60243;SDS011;46106;51.468;5.814;2022-12-16T10:58:18;97.22;;;39.60;;
60243;SDS011;46106;51.468;5.814;2022-12-16T11:01:19;102.90;;;42.28;;
60243;SDS011;46106;51.468;5.814;2022-12-16T11:13:26;92.38;;;35.25;;
60243;SDS011;46106;51.468;5.814;2022-12-16T11:16:12;81.47;;;34.03;;
60243;SDS011;46106;51.468;5.814;2022-12-16T11:22:12;77.03;;;33.90;;
60243;SDS011;46106;51.468;5.814;2022-12-16T11:25:03;85.68;;;35.55;;
60243;SDS011;46106;51.468;5.814;2022-12-16T11:28:10;97.70;;;37.08;;
60243;SDS011;46106;51.468;5.814;2022-12-16T11:31:03;90.63;;;34.58;;
60243;SDS011;46106;51.468;5.814;2022-12-16T11:33:51;88.50;;;37.60;;
60243;SDS011;46106;51.468;5.814;2022-12-16T11:36:37;72.90;;;30.42;;
60243;SDS011;46106;51.468;5.814;2022-12-16T11:39:24;92.25;;;36.03;;
60243;SDS011;46106;51.468;5.814;2022-12-16T11:42:21;82.32;;;36.00;;
60243;SDS011;46106;51.468;5.814;2022-12-16T11:45:13;99.47;;;39.20;;
60243;SDS011;46106;51.468;5.814;2022-12-16T11:51:11;97.55;;;37.25;;
60243;SDS011;46106;51.468;5.814;2022-12-16T11:57:04;93.20;;;37.47;;
60243;SDS011;46106;51.468;5.814;2022-12-16T12:00:00;86.07;;;36.67;;
60243;SDS011;46106;51.468;5.814;2022-12-16T12:02:54;87.13;;;36.67;;
60243;SDS011;46106;51.468;5.814;2022-12-16T12:05:53;84.45;;;34.55;;
60243;SDS011;46106;51.468;5.814;2022-12-16T12:08:47;75.82;;;34.13;;
60243;SDS011;46106;51.468;5.814;2022-12-16T12:18:20;86.63;;;35.30;;
60243;SDS011;46106;51.468;5.814;2022-12-16T12:21:25;82.03;;;33.45;;
60243;SDS011;46106;51.468;5.814;2022-12-16T12:30:04;97.13;;;38.08;;
60243;SDS011;46106;51.468;5.814;2022-12-16T12:33:11;87.10;;;38.75;;
60243;SDS011;46106;51.468;5.814;2022-12-16T12:36:24;95.20;;;38.00;;
60243;SDS011;46106;51.468;5.814;2022-12-16T12:42:33;96.15;;;38.60;;
60243;SDS011;46106;51.468;5.814;2022-12-16T12:48:39;104.60;;;38.92;;
60243;SDS011;46106;51.468;5.814;2022-12-16T12:55:11;94.88;;;37.42;;
60243;SDS011;46106;51.468;5.814;2022-12-16T12:58:11;91.47;;;38.53;;
60243;SDS011;46106;51.468;5.814;2022-12-16T13:00:57;88.47;;;38.60;;
60243;SDS011;46106;51.468;5.814;2022-12-16T13:03:48;87.53;;;37.83;;
60243;SDS011;46106;51.468;5.814;2022-12-16T13:06:56;83.00;;;36.55;;
60243;SDS011;46106;51.468;5.814;2022-12-16T13:09:42;94.60;;;37.83;;
60243;SDS011;46106;51.468;5.814;2022-12-16T13:12:27;86.47;;;36.53;;
60243;SDS011;46106;51.468;5.814;2022-12-16T13:15:19;82.20;;;36.70;;
60243;SDS011;46106;51.468;5.814;2022-12-16T13:24:33;80.65;;;36.20;;
60243;SDS011;46106;51.468;5.814;2022-12-16T13:27:21;84.80;;;36.72;;
60243;SDS011;46106;51.468;5.814;2022-12-16T13:33:00;77.60;;;35.95;;
60243;SDS011;46106;51.468;5.814;2022-12-16T13:35:52;79.68;;;35.40;;
60243;SDS011;46106;51.468;5.814;2022-12-16T13:38:43;90.03;;;37.47;;
60243;SDS011;46106;51.468;5.814;2022-12-16T13:44:12;73.55;;;34.55;;
60243;SDS011;46106;51.468;5.814;2022-12-16T13:50:40;72.13;;;34.55;;
60243;SDS011;46106;51.468;5.814;2022-12-16T13:53:27;80.82;;;37.38;;
60243;SDS011;46106;51.468;5.814;2022-12-16T13:56:22;81.95;;;34.75;;
60243;SDS011;46106;51.468;5.814;2022-12-16T13:59:14;77.32;;;35.17;;
60243;SDS011;46106;51.468;5.814;2022-12-16T14:02:46;84.43;;;33.88;;
60243;SDS011;46106;51.468;5.814;2022-12-16T14:05:09;76.72;;;33.47;;
60243;SDS011;46106;51.468;5.814;2022-12-16T14:07:59;80.30;;;33.90;;
60243;SDS011;46106;51.468;5.814;2022-12-16T14:10:43;70.03;;;33.33;;
60243;SDS011;46106;51.468;5.814;2022-12-16T14:19:41;74.43;;;34.55;;
60243;SDS011;46106;51.468;5.814;2022-12-16T14:25:35;94.00;;;37.10;;
60243;SDS011;46106;51.468;5.814;2022-12-16T14:28:32;77.18;;;33.97;;
60243;SDS011;46106;51.468;5.814;2022-12-16T14:31:25;73.22;;;33.40;;
60243;SDS011;46106;51.468;5.814;2022-12-16T14:34:18;77.88;;;33.47;;
60243;SDS011;46106;51.468;5.814;2022-12-16T14:37:14;75.18;;;35.17;;
60243;SDS011;46106;51.468;5.814;2022-12-16T14:43:19;72.55;;;33.38;;
60243;SDS011;46106;51.468;5.814;2022-12-16T14:46:17;70.60;;;33.30;;
60243;SDS011;46106;51.468;5.814;2022-12-16T14:49:20;77.65;;;35.05;;
60243;SDS011;46106;51.468;5.814;2022-12-16T14:52:26;72.43;;;33.67;;
60243;SDS011;46106;51.468;5.814;2022-12-16T14:58:14;73.53;;;32.15;;
60243;SDS011;46106;51.468;5.814;2022-12-16T15:01:21;72.10;;;31.90;;
60243;SDS011;46106;51.468;5.814;2022-12-16T15:04:08;75.13;;;33.22;;
60243;SDS011;46106;51.468;5.814;2022-12-16T15:06:56;69.75;;;32.83;;
60243;SDS011;46106;51.468;5.814;2022-12-16T15:09:50;75.78;;;32.83;;
60243;SDS011;46106;51.468;5.814;2022-12-16T15:12:37;73.93;;;32.90;;
60243;SDS011;46106;51.468;5.814;2022-12-16T15:18:18;75.10;;;33.47;;
60243;SDS011;46106;51.468;5.814;2022-12-16T15:21:08;79.00;;;34.83;;
60243;SDS011;46106;51.468;5.814;2022-12-16T15:23:53;79.72;;;35.08;;
60243;SDS011;46106;51.468;5.814;2022-12-16T15:29:57;76.43;;;33.50;;
60243;SDS011;46106;51.468;5.814;2022-12-16T15:32:41;78.05;;;34.53;;
60243;SDS011;46106;51.468;5.814;2022-12-16T15:35:26;71.53;;;34.17;;
60243;SDS011;46106;51.468;5.814;2022-12-16T15:40:59;73.82;;;32.03;;
60243;SDS011;46106;51.468;5.814;2022-12-16T15:43:46;71.78;;;32.88;;
60243;SDS011;46106;51.468;5.814;2022-12-16T15:46:31;77.70;;;33.50;;
60243;SDS011;46106;51.468;5.814;2022-12-16T15:58:18;120.35;;;50.15;;
60243;SDS011;46106;51.468;5.814;2022-12-16T16:01:20;127.45;;;51.40;;
60243;SDS011;46106;51.468;5.814;2022-12-16T16:04:20;130.40;;;51.38;;
60243;SDS011;46106;51.468;5.814;2022-12-16T16:07:13;131.15;;;52.45;;
60243;SDS011;46106;51.468;5.814;2022-12-16T16:13:08;126.22;;;49.97;;
60243;SDS011;46106;51.468;5.814;2022-12-16T16:15:53;129.30;;;49.45;;
60243;SDS011;46106;51.468;5.814;2022-12-16T16:18:41;113.82;;;45.30;;
60243;SDS011;46106;51.468;5.814;2022-12-16T16:21:26;126.75;;;46.75;;
60243;SDS011;46106;51.468;5.814;2022-12-16T16:24:11;115.70;;;44.45;;
60243;SDS011;46106;51.468;5.814;2022-12-16T16:26:56;116.70;;;45.55;;
60243;SDS011;46106;51.468;5.814;2022-12-16T16:29:43;109.63;;;45.20;;
60243;SDS011;46106;51.468;5.814;2022-12-16T16:32:30;114.28;;;45.80;;
60243;SDS011;46106;51.468;5.814;2022-12-16T16:35:14;114.57;;;43.80;;
60243;SDS011;46106;51.468;5.814;2022-12-16T16:37:58;112.80;;;44.47;;
60243;SDS011;46106;51.468;5.814;2022-12-16T16:40:42;116.45;;;46.90;;
60243;SDS011;46106;51.468;5.814;2022-12-16T16:43:27;106.63;;;43.67;;
60243;SDS011;46106;51.468;5.814;2022-12-16T16:49:02;122.57;;;46.00;;
60243;SDS011;46106;51.468;5.814;2022-12-16T16:51:46;105.05;;;42.45;;
60243;SDS011;46106;51.468;5.814;2022-12-16T16:54:31;114.65;;;43.70;;
60243;SDS011;46106;51.468;5.814;2022-12-16T16:57:15;107.38;;;42.10;;
60243;SDS011;46106;51.468;5.814;2022-12-16T16:59:59;121.35;;;43.88;;
60243;SDS011;46106;51.468;5.814;2022-12-16T17:02:43;107.35;;;42.08;;
60243;SDS011;46106;51.468;5.814;2022-12-16T17:05:30;120.05;;;44.80;;
60243;SDS011;46106;51.468;5.814;2022-12-16T17:08:14;113.60;;;43.42;;
60243;SDS011;46106;51.468;5.814;2022-12-16T17:10:58;128.73;;;47.55;;
60243;SDS011;46106;51.468;5.814;2022-12-16T17:13:42;121.20;;;45.47;;
60243;SDS011;46106;51.468;5.814;2022-12-16T17:16:25;114.80;;;44.60;;
60243;SDS011;46106;51.468;5.814;2022-12-16T17:19:09;127.97;;;44.08;;
60243;SDS011;46106;51.468;5.814;2022-12-16T17:21:53;122.82;;;44.60;;
60243;SDS011;46106;51.468;5.814;2022-12-16T17:24:37;118.95;;;45.78;;
60243;SDS011;46106;51.468;5.814;2022-12-16T17:27:23;119.88;;;46.65;;
60243;SDS011;46106;51.468;5.814;2022-12-16T17:30:15;119.65;;;45.85;;
60243;SDS011;46106;51.468;5.814;2022-12-16T17:33:00;126.78;;;45.58;;
60243;SDS011;46106;51.468;5.814;2022-12-16T17:35:46;123.45;;;44.70;;
60243;SDS011;46106;51.468;5.814;2022-12-16T17:38:32;123.35;;;45.30;;
60243;SDS011;46106;51.468;5.814;2022-12-16T17:41:19;119.28;;;46.03;;
60243;SDS011;46106;51.468;5.814;2022-12-16T17:44:03;136.93;;;45.67;;
60243;SDS011;46106;51.468;5.814;2022-12-16T17:46:47;124.78;;;46.55;;
60243;SDS011;46106;51.468;5.814;2022-12-16T17:49:31;120.82;;;45.42;;
60243;SDS011;46106;51.468;5.814;2022-12-16T17:52:15;124.70;;;46.10;;
60243;SDS011;46106;51.468;5.814;2022-12-16T17:54:58;130.13;;;48.75;;
60243;SDS011;46106;51.468;5.814;2022-12-16T17:57:42;116.55;;;46.10;;
60243;SDS011;46106;51.468;5.814;2022-12-16T18:00:26;137.55;;;48.75;;
60243;SDS011;46106;51.468;5.814;2022-12-16T18:03:14;132.18;;;47.42;;
60243;SDS011;46106;51.468;5.814;2022-12-16T18:05:58;128.13;;;46.20;;
60243;SDS011;46106;51.468;5.814;2022-12-16T18:08:41;125.75;;;48.83;;
60243;SDS011;46106;51.468;5.814;2022-12-16T18:11:25;121.15;;;46.00;;
60243;SDS011;46106;51.468;5.814;2022-12-16T18:14:09;127.30;;;46.03;;